sensor_id;sensor_type;location;lat;lon;timestamp;P1;durP1;ratioP1;P2;durP2;ratioP2
61709;SDS011;47633;51.494;5.386;2023-04-25T00:00:33;7.75;;;2.35;;
61709;SDS011;47633;51.494;5.386;2023-04-25T00:02:59;5.50;;;2.00;;
61709;SDS011;47633;51.494;5.386;2023-04-25T00:05:25;4.53;;;1.80;;
61709;SDS011;47633;51.494;5.386;2023-04-25T00:07:51;5.68;;;2.00;;
61709;SDS011;47633;51.494;5.386;2023-04-25T00:10:16;6.93;;;2.00;;
61709;SDS011;47633;51.494;5.386;2023-04-25T00:12:41;5.22;;;2.05;;
61709;SDS011;47633;51.494;5.386;2023-04-25T00:15:07;6.68;;;2.03;;
61709;SDS011;47633;51.494;5.386;2023-04-25T00:17:32;5.00;;;2.00;;
61709;SDS011;47633;51.494;5.386;2023-04-25T00:19:59;7.88;;;2.15;;
61709;SDS011;47633;51.494;5.386;2023-04-25T00:22:25;7.22;;;2.25;;
61709;SDS011;47633;51.494;5.386;2023-04-25T00:24:50;6.72;;;2.00;;
61709;SDS011;47633;51.494;5.386;2023-04-25T00:27:18;5.30;;;2.08;;
61709;SDS011;47633;51.494;5.386;2023-04-25T00:29:43;6.63;;;2.17;;
61709;SDS011;47633;51.494;5.386;2023-04-25T00:32:08;5.00;;;2.20;;
61709;SDS011;47633;51.494;5.386;2023-04-25T00:34:33;5.68;;;2.05;;
61709;SDS011;47633;51.494;5.386;2023-04-25T00:36:59;4.93;;;1.70;;
61709;SDS011;47633;51.494;5.386;2023-04-25T00:39:26;5.63;;;2.20;;
61709;SDS011;47633;51.494;5.386;2023-04-25T00:41:52;5.15;;;2.08;;
61709;SDS011;47633;51.494;5.386;2023-04-25T00:44:19;7.40;;;1.98;;
61709;SDS011;47633;51.494;5.386;2023-04-25T00:46:45;5.57;;;1.73;;
61709;SDS011;47633;51.494;5.386;2023-04-25T00:49:13;6.63;;;2.20;;
61709;SDS011;47633;51.494;5.386;2023-04-25T00:51:40;5.13;;;1.90;;
61709;SDS011;47633;51.494;5.386;2023-04-25T00:54:06;5.25;;;1.75;;
61709;SDS011;47633;51.494;5.386;2023-04-25T00:56:32;5.00;;;2.13;;
61709;SDS011;47633;51.494;5.386;2023-04-25T00:58:57;5.13;;;1.90;;
61709;SDS011;47633;51.494;5.386;2023-04-25T01:01:22;5.93;;;1.98;;
61709;SDS011;47633;51.494;5.386;2023-04-25T01:03:48;4.72;;;1.70;;
61709;SDS011;47633;51.494;5.386;2023-04-25T01:06:15;5.07;;;2.13;;
61709;SDS011;47633;51.494;5.386;2023-04-25T01:08:41;5.78;;;2.00;;
61709;SDS011;47633;51.494;5.386;2023-04-25T01:11:06;6.63;;;1.83;;
61709;SDS011;47633;51.494;5.386;2023-04-25T01:13:32;5.95;;;1.80;;
61709;SDS011;47633;51.494;5.386;2023-04-25T01:15:58;5.00;;;1.70;;
61709;SDS011;47633;51.494;5.386;2023-04-25T01:18:24;6.75;;;2.20;;
61709;SDS011;47633;51.494;5.386;2023-04-25T01:20:50;4.97;;;1.98;;
61709;SDS011;47633;51.494;5.386;2023-04-25T01:23:16;4.80;;;1.67;;
61709;SDS011;47633;51.494;5.386;2023-04-25T01:25:42;5.07;;;1.58;;
61709;SDS011;47633;51.494;5.386;2023-04-25T01:28:07;6.50;;;2.58;;
61709;SDS011;47633;51.494;5.386;2023-04-25T01:30:33;4.85;;;1.80;;
61709;SDS011;47633;51.494;5.386;2023-04-25T01:32:59;6.22;;;1.65;;
61709;SDS011;47633;51.494;5.386;2023-04-25T01:35:25;5.88;;;1.90;;
61709;SDS011;47633;51.494;5.386;2023-04-25T01:37:51;4.32;;;1.83;;
61709;SDS011;47633;51.494;5.386;2023-04-25T01:40:16;4.93;;;1.63;;
61709;SDS011;47633;51.494;5.386;2023-04-25T01:42:43;6.05;;;1.92;;
61709;SDS011;47633;51.494;5.386;2023-04-25T01:45:09;4.72;;;1.70;;
61709;SDS011;47633;51.494;5.386;2023-04-25T01:47:35;5.18;;;1.80;;
61709;SDS011;47633;51.494;5.386;2023-04-25T01:50:02;5.80;;;1.80;;
61709;SDS011;47633;51.494;5.386;2023-04-25T01:52:29;5.85;;;1.88;;
61709;SDS011;47633;51.494;5.386;2023-04-25T01:54:55;6.32;;;1.80;;
61709;SDS011;47633;51.494;5.386;2023-04-25T01:57:22;5.32;;;1.88;;
61709;SDS011;47633;51.494;5.386;2023-04-25T01:59:47;6.00;;;1.95;;
61709;SDS011;47633;51.494;5.386;2023-04-25T02:02:12;4.75;;;1.60;;
61709;SDS011;47633;51.494;5.386;2023-04-25T02:04:38;5.93;;;2.22;;
61709;SDS011;47633;51.494;5.386;2023-04-25T02:07:03;4.43;;;1.60;;
61709;SDS011;47633;51.494;5.386;2023-04-25T02:09:28;4.47;;;1.60;;
61709;SDS011;47633;51.494;5.386;2023-04-25T02:11:54;6.07;;;2.00;;
61709;SDS011;47633;51.494;5.386;2023-04-25T02:14:19;5.03;;;1.55;;
61709;SDS011;47633;51.494;5.386;2023-04-25T02:16:44;4.72;;;1.80;;
61709;SDS011;47633;51.494;5.386;2023-04-25T02:19:11;4.88;;;1.90;;
61709;SDS011;47633;51.494;5.386;2023-04-25T02:21:36;6.50;;;2.15;;
61709;SDS011;47633;51.494;5.386;2023-04-25T02:24:02;4.63;;;1.60;;
61709;SDS011;47633;51.494;5.386;2023-04-25T02:26:28;5.35;;;1.95;;
61709;SDS011;47633;51.494;5.386;2023-04-25T02:28:54;5.95;;;1.75;;
61709;SDS011;47633;51.494;5.386;2023-04-25T02:31:19;4.82;;;1.95;;
61709;SDS011;47633;51.494;5.386;2023-04-25T02:33:45;5.50;;;1.70;;
61709;SDS011;47633;51.494;5.386;2023-04-25T02:36:10;5.90;;;1.90;;
61709;SDS011;47633;51.494;5.386;2023-04-25T02:38:36;4.22;;;1.67;;
61709;SDS011;47633;51.494;5.386;2023-04-25T02:41:01;5.30;;;1.63;;
61709;SDS011;47633;51.494;5.386;2023-04-25T02:43:26;4.75;;;1.90;;
61709;SDS011;47633;51.494;5.386;2023-04-25T02:45:52;5.13;;;1.77;;
61709;SDS011;47633;51.494;5.386;2023-04-25T02:48:17;4.57;;;1.60;;
61709;SDS011;47633;51.494;5.386;2023-04-25T02:50:42;4.95;;;1.80;;
61709;SDS011;47633;51.494;5.386;2023-04-25T02:53:08;4.82;;;1.90;;
61709;SDS011;47633;51.494;5.386;2023-04-25T02:55:33;4.05;;;1.73;;
61709;SDS011;47633;51.494;5.386;2023-04-25T02:57:58;4.63;;;1.88;;
61709;SDS011;47633;51.494;5.386;2023-04-25T03:00:23;4.80;;;1.60;;
61709;SDS011;47633;51.494;5.386;2023-04-25T03:02:49;6.63;;;1.95;;
61709;SDS011;47633;51.494;5.386;2023-04-25T03:05:16;4.13;;;1.55;;
61709;SDS011;47633;51.494;5.386;2023-04-25T03:07:41;5.32;;;1.70;;
61709;SDS011;47633;51.494;5.386;2023-04-25T03:10:08;4.57;;;1.90;;
61709;SDS011;47633;51.494;5.386;2023-04-25T03:12:34;6.57;;;1.77;;
61709;SDS011;47633;51.494;5.386;2023-04-25T03:14:59;5.97;;;1.85;;
61709;SDS011;47633;51.494;5.386;2023-04-25T03:17:24;4.32;;;1.60;;
61709;SDS011;47633;51.494;5.386;2023-04-25T03:19:50;4.37;;;1.50;;
61709;SDS011;47633;51.494;5.386;2023-04-25T03:22:15;4.50;;;1.92;;
61709;SDS011;47633;51.494;5.386;2023-04-25T03:24:40;6.20;;;2.00;;
61709;SDS011;47633;51.494;5.386;2023-04-25T03:27:06;4.55;;;1.70;;
61709;SDS011;47633;51.494;5.386;2023-04-25T03:29:31;4.97;;;1.80;;
61709;SDS011;47633;51.494;5.386;2023-04-25T03:31:56;4.80;;;2.20;;
61709;SDS011;47633;51.494;5.386;2023-04-25T03:34:21;6.32;;;1.92;;
61709;SDS011;47633;51.494;5.386;2023-04-25T03:36:47;4.47;;;1.80;;
61709;SDS011;47633;51.494;5.386;2023-04-25T03:39:12;5.15;;;1.67;;
61709;SDS011;47633;51.494;5.386;2023-04-25T03:41:37;5.53;;;1.90;;
61709;SDS011;47633;51.494;5.386;2023-04-25T03:44:03;6.15;;;1.90;;
61709;SDS011;47633;51.494;5.386;2023-04-25T03:46:28;4.35;;;1.70;;
61709;SDS011;47633;51.494;5.386;2023-04-25T03:48:53;4.38;;;1.63;;
61709;SDS011;47633;51.494;5.386;2023-04-25T03:51:19;7.60;;;1.60;;
61709;SDS011;47633;51.494;5.386;2023-04-25T03:53:44;4.95;;;1.70;;
61709;SDS011;47633;51.494;5.386;2023-04-25T03:56:09;4.80;;;1.60;;
61709;SDS011;47633;51.494;5.386;2023-04-25T03:58:35;4.40;;;1.60;;
61709;SDS011;47633;51.494;5.386;2023-04-25T04:01:00;6.30;;;1.90;;
61709;SDS011;47633;51.494;5.386;2023-04-25T04:03:28;5.22;;;1.63;;
61709;SDS011;47633;51.494;5.386;2023-04-25T04:05:53;4.95;;;1.70;;
61709;SDS011;47633;51.494;5.386;2023-04-25T04:08:18;5.63;;;1.52;;
61709;SDS011;47633;51.494;5.386;2023-04-25T04:10:44;5.90;;;1.95;;
61709;SDS011;47633;51.494;5.386;2023-04-25T04:13:09;5.95;;;1.85;;
61709;SDS011;47633;51.494;5.386;2023-04-25T04:15:35;5.50;;;1.50;;
61709;SDS011;47633;51.494;5.386;2023-04-25T04:18:00;5.45;;;1.88;;
61709;SDS011;47633;51.494;5.386;2023-04-25T04:20:28;6.43;;;1.70;;
61709;SDS011;47633;51.494;5.386;2023-04-25T04:22:54;5.15;;;1.50;;
61709;SDS011;47633;51.494;5.386;2023-04-25T04:25:19;5.00;;;1.60;;
61709;SDS011;47633;51.494;5.386;2023-04-25T04:27:45;4.23;;;1.70;;
61709;SDS011;47633;51.494;5.386;2023-04-25T04:30:11;5.10;;;1.60;;
61709;SDS011;47633;51.494;5.386;2023-04-25T04:32:37;8.38;;;2.47;;
61709;SDS011;47633;51.494;5.386;2023-04-25T04:35:03;5.75;;;1.92;;
61709;SDS011;47633;51.494;5.386;2023-04-25T04:37:31;5.22;;;2.10;;
61709;SDS011;47633;51.494;5.386;2023-04-25T04:39:57;5.15;;;1.50;;
61709;SDS011;47633;51.494;5.386;2023-04-25T04:42:22;5.43;;;1.75;;
61709;SDS011;47633;51.494;5.386;2023-04-25T04:44:49;4.57;;;1.63;;
61709;SDS011;47633;51.494;5.386;2023-04-25T04:47:15;4.38;;;1.95;;
61709;SDS011;47633;51.494;5.386;2023-04-25T04:49:40;4.88;;;1.77;;
61709;SDS011;47633;51.494;5.386;2023-04-25T04:52:05;6.10;;;1.70;;
61709;SDS011;47633;51.494;5.386;2023-04-25T04:54:30;4.20;;;1.35;;
61709;SDS011;47633;51.494;5.386;2023-04-25T04:56:56;4.95;;;1.50;;
61709;SDS011;47633;51.494;5.386;2023-04-25T04:59:21;6.30;;;1.75;;
61709;SDS011;47633;51.494;5.386;2023-04-25T05:01:46;5.43;;;1.63;;
61709;SDS011;47633;51.494;5.386;2023-04-25T05:04:12;5.30;;;1.60;;
61709;SDS011;47633;51.494;5.386;2023-04-25T05:06:37;5.22;;;1.70;;
61709;SDS011;47633;51.494;5.386;2023-04-25T05:09:03;4.15;;;1.42;;
61709;SDS011;47633;51.494;5.386;2023-04-25T05:11:28;6.05;;;1.58;;
61709;SDS011;47633;51.494;5.386;2023-04-25T05:13:54;4.05;;;1.30;;
61709;SDS011;47633;51.494;5.386;2023-04-25T05:16:19;5.03;;;1.48;;
61709;SDS011;47633;51.494;5.386;2023-04-25T05:18:45;6.60;;;1.80;;
61709;SDS011;47633;51.494;5.386;2023-04-25T05:21:11;4.30;;;1.48;;
61709;SDS011;47633;51.494;5.386;2023-04-25T05:23:36;6.28;;;1.58;;
61709;SDS011;47633;51.494;5.386;2023-04-25T05:26:03;5.63;;;1.80;;
61709;SDS011;47633;51.494;5.386;2023-04-25T05:28:28;4.03;;;1.30;;
61709;SDS011;47633;51.494;5.386;2023-04-25T05:30:54;5.75;;;1.67;;
61709;SDS011;47633;51.494;5.386;2023-04-25T05:33:19;4.25;;;1.27;;
61709;SDS011;47633;51.494;5.386;2023-04-25T05:35:44;3.20;;;1.20;;
61709;SDS011;47633;51.494;5.386;2023-04-25T05:38:10;3.92;;;1.30;;
61709;SDS011;47633;51.494;5.386;2023-04-25T05:40:35;4.65;;;1.58;;
61709;SDS011;47633;51.494;5.386;2023-04-25T05:43:01;4.68;;;1.30;;
61709;SDS011;47633;51.494;5.386;2023-04-25T05:45:26;4.40;;;1.30;;
61709;SDS011;47633;51.494;5.386;2023-04-25T05:47:51;4.43;;;1.20;;
61709;SDS011;47633;51.494;5.386;2023-04-25T05:50:17;4.15;;;1.05;;
61709;SDS011;47633;51.494;5.386;2023-04-25T05:52:42;4.03;;;1.42;;
61709;SDS011;47633;51.494;5.386;2023-04-25T05:55:08;5.07;;;2.03;;
61709;SDS011;47633;51.494;5.386;2023-04-25T05:57:33;4.65;;;1.63;;
61709;SDS011;47633;51.494;5.386;2023-04-25T05:59:59;4.85;;;1.42;;
61709;SDS011;47633;51.494;5.386;2023-04-25T06:02:24;5.63;;;1.73;;
61709;SDS011;47633;51.494;5.386;2023-04-25T06:04:50;3.35;;;1.17;;
61709;SDS011;47633;51.494;5.386;2023-04-25T06:07:16;3.17;;;1.20;;
61709;SDS011;47633;51.494;5.386;2023-04-25T06:09:41;3.92;;;1.30;;
61709;SDS011;47633;51.494;5.386;2023-04-25T06:12:07;4.90;;;1.48;;
61709;SDS011;47633;51.494;5.386;2023-04-25T06:14:35;5.37;;;1.63;;
61709;SDS011;47633;51.494;5.386;2023-04-25T06:17:02;5.32;;;1.42;;
61709;SDS011;47633;51.494;5.386;2023-04-25T06:19:34;5.15;;;1.65;;
61709;SDS011;47633;51.494;5.386;2023-04-25T06:22:00;6.40;;;1.70;;
61709;SDS011;47633;51.494;5.386;2023-04-25T06:24:26;6.40;;;1.65;;
61709;SDS011;47633;51.494;5.386;2023-04-25T06:26:51;5.85;;;1.92;;
61709;SDS011;47633;51.494;5.386;2023-04-25T06:29:17;4.78;;;1.58;;
61709;SDS011;47633;51.494;5.386;2023-04-25T06:31:43;5.28;;;1.90;;
61709;SDS011;47633;51.494;5.386;2023-04-25T06:34:08;5.97;;;1.58;;
61709;SDS011;47633;51.494;5.386;2023-04-25T06:36:34;7.23;;;1.63;;
61709;SDS011;47633;51.494;5.386;2023-04-25T06:38:59;6.78;;;1.90;;
61709;SDS011;47633;51.494;5.386;2023-04-25T06:41:24;5.22;;;1.67;;
61709;SDS011;47633;51.494;5.386;2023-04-25T06:43:50;4.38;;;1.30;;
61709;SDS011;47633;51.494;5.386;2023-04-25T06:46:15;6.13;;;1.60;;
61709;SDS011;47633;51.494;5.386;2023-04-25T06:48:40;3.72;;;1.27;;
61709;SDS011;47633;51.494;5.386;2023-04-25T06:51:06;4.25;;;1.27;;
61709;SDS011;47633;51.494;5.386;2023-04-25T06:53:31;5.13;;;1.77;;
61709;SDS011;47633;51.494;5.386;2023-04-25T06:55:56;5.60;;;1.60;;
61709;SDS011;47633;51.494;5.386;2023-04-25T06:58:21;5.23;;;1.20;;
61709;SDS011;47633;51.494;5.386;2023-04-25T07:00:47;3.55;;;1.17;;
61709;SDS011;47633;51.494;5.386;2023-04-25T07:03:12;4.57;;;1.20;;
61709;SDS011;47633;51.494;5.386;2023-04-25T07:05:37;4.22;;;1.38;;
61709;SDS011;47633;51.494;5.386;2023-04-25T07:08:03;4.78;;;1.38;;
61709;SDS011;47633;51.494;5.386;2023-04-25T07:10:28;4.85;;;1.63;;
61709;SDS011;47633;51.494;5.386;2023-04-25T07:12:54;6.10;;;1.40;;
61709;SDS011;47633;51.494;5.386;2023-04-25T07:15:19;4.22;;;1.20;;
61709;SDS011;47633;51.494;5.386;2023-04-25T07:17:45;5.13;;;1.38;;
61709;SDS011;47633;51.494;5.386;2023-04-25T07:20:12;4.80;;;1.13;;
61709;SDS011;47633;51.494;5.386;2023-04-25T07:22:37;4.75;;;1.45;;
61709;SDS011;47633;51.494;5.386;2023-04-25T07:25:02;14.43;;;2.40;;
61709;SDS011;47633;51.494;5.386;2023-04-25T07:27:29;4.13;;;1.27;;
61709;SDS011;47633;51.494;5.386;2023-04-25T07:29:55;5.22;;;1.27;;
61709;SDS011;47633;51.494;5.386;2023-04-25T07:32:20;5.50;;;1.33;;
61709;SDS011;47633;51.494;5.386;2023-04-25T07:34:45;3.50;;;1.10;;
61709;SDS011;47633;51.494;5.386;2023-04-25T07:37:10;4.47;;;1.50;;
61709;SDS011;47633;51.494;5.386;2023-04-25T07:39:36;3.63;;;1.20;;
61709;SDS011;47633;51.494;5.386;2023-04-25T07:42:02;5.22;;;1.92;;
61709;SDS011;47633;51.494;5.386;2023-04-25T07:44:28;4.55;;;1.15;;
61709;SDS011;47633;51.494;5.386;2023-04-25T07:46:55;5.95;;;1.27;;
61709;SDS011;47633;51.494;5.386;2023-04-25T07:49:20;5.68;;;1.15;;
61709;SDS011;47633;51.494;5.386;2023-04-25T07:51:46;4.90;;;1.27;;
61709;SDS011;47633;51.494;5.386;2023-04-25T07:54:14;5.05;;;1.23;;
61709;SDS011;47633;51.494;5.386;2023-04-25T07:56:40;7.32;;;1.33;;
61709;SDS011;47633;51.494;5.386;2023-04-25T07:59:06;5.13;;;1.25;;
61709;SDS011;47633;51.494;5.386;2023-04-25T08:01:31;4.28;;;1.30;;
61709;SDS011;47633;51.494;5.386;2023-04-25T08:03:56;6.55;;;1.25;;
61709;SDS011;47633;51.494;5.386;2023-04-25T08:06:22;5.75;;;1.02;;
61709;SDS011;47633;51.494;5.386;2023-04-25T08:08:47;4.45;;;1.00;;
61709;SDS011;47633;51.494;5.386;2023-04-25T08:11:12;8.43;;;1.38;;
61709;SDS011;47633;51.494;5.386;2023-04-25T08:13:37;4.25;;;1.40;;
61709;SDS011;47633;51.494;5.386;2023-04-25T08:16:03;3.45;;;0.88;;
61709;SDS011;47633;51.494;5.386;2023-04-25T08:18:28;5.90;;;1.10;;
61709;SDS011;47633;51.494;5.386;2023-04-25T08:20:54;5.78;;;1.30;;
61709;SDS011;47633;51.494;5.386;2023-04-25T08:23:19;5.40;;;1.30;;
61709;SDS011;47633;51.494;5.386;2023-04-25T08:25:44;4.50;;;1.17;;
61709;SDS011;47633;51.494;5.386;2023-04-25T08:28:09;5.95;;;1.40;;
61709;SDS011;47633;51.494;5.386;2023-04-25T08:30:36;4.82;;;1.20;;
61709;SDS011;47633;51.494;5.386;2023-04-25T08:33:01;4.85;;;1.17;;
61709;SDS011;47633;51.494;5.386;2023-04-25T08:35:26;4.07;;;1.38;;
61709;SDS011;47633;51.494;5.386;2023-04-25T08:37:52;7.15;;;1.40;;
61709;SDS011;47633;51.494;5.386;2023-04-25T08:40:17;5.53;;;1.55;;
61709;SDS011;47633;51.494;5.386;2023-04-25T08:42:44;5.80;;;0.98;;
61709;SDS011;47633;51.494;5.386;2023-04-25T08:45:11;4.88;;;1.10;;
61709;SDS011;47633;51.494;5.386;2023-04-25T08:47:37;5.35;;;1.20;;
61709;SDS011;47633;51.494;5.386;2023-04-25T08:50:03;5.95;;;1.10;;
61709;SDS011;47633;51.494;5.386;2023-04-25T08:52:32;5.18;;;1.20;;
61709;SDS011;47633;51.494;5.386;2023-04-25T08:55:02;4.68;;;1.20;;
61709;SDS011;47633;51.494;5.386;2023-04-25T08:57:28;5.28;;;1.58;;
61709;SDS011;47633;51.494;5.386;2023-04-25T08:59:55;6.60;;;1.52;;
61709;SDS011;47633;51.494;5.386;2023-04-25T09:02:22;7.63;;;1.52;;
61709;SDS011;47633;51.494;5.386;2023-04-25T09:04:49;4.20;;;1.13;;
61709;SDS011;47633;51.494;5.386;2023-04-25T09:07:14;3.63;;;1.10;;
61709;SDS011;47633;51.494;5.386;2023-04-25T09:09:43;5.13;;;1.45;;
61709;SDS011;47633;51.494;5.386;2023-04-25T09:12:08;4.28;;;1.40;;
61709;SDS011;47633;51.494;5.386;2023-04-25T09:14:34;6.30;;;1.60;;
61709;SDS011;47633;51.494;5.386;2023-04-25T09:17:00;5.00;;;1.05;;
61709;SDS011;47633;51.494;5.386;2023-04-25T09:19:28;4.50;;;1.13;;
61709;SDS011;47633;51.494;5.386;2023-04-25T09:21:58;4.60;;;1.13;;
61709;SDS011;47633;51.494;5.386;2023-04-25T09:24:32;7.68;;;2.50;;
61709;SDS011;47633;51.494;5.386;2023-04-25T09:26:59;4.28;;;1.08;;
61709;SDS011;47633;51.494;5.386;2023-04-25T09:29:32;5.60;;;1.17;;
61709;SDS011;47633;51.494;5.386;2023-04-25T09:34:41;5.07;;;0.90;;
61709;SDS011;47633;51.494;5.386;2023-04-25T09:37:10;4.35;;;1.17;;
61709;SDS011;47633;51.494;5.386;2023-04-25T09:39:37;4.22;;;0.90;;
61709;SDS011;47633;51.494;5.386;2023-04-25T09:42:03;5.25;;;1.10;;
61709;SDS011;47633;51.494;5.386;2023-04-25T09:44:29;6.25;;;1.10;;
61709;SDS011;47633;51.494;5.386;2023-04-25T09:46:55;5.47;;;1.10;;
61709;SDS011;47633;51.494;5.386;2023-04-25T09:49:20;6.80;;;1.25;;
61709;SDS011;47633;51.494;5.386;2023-04-25T09:51:55;4.88;;;1.42;;
61709;SDS011;47633;51.494;5.386;2023-04-25T09:54:22;2.95;;;1.00;;
61709;SDS011;47633;51.494;5.386;2023-04-25T09:56:48;4.80;;;1.20;;
61709;SDS011;47633;51.494;5.386;2023-04-25T09:59:16;6.22;;;1.20;;
61709;SDS011;47633;51.494;5.386;2023-04-25T10:01:45;4.75;;;1.13;;
61709;SDS011;47633;51.494;5.386;2023-04-25T10:04:11;6.10;;;1.13;;
61709;SDS011;47633;51.494;5.386;2023-04-25T10:06:37;5.50;;;1.17;;
61709;SDS011;47633;51.494;5.386;2023-04-25T10:09:03;3.70;;;1.00;;
61709;SDS011;47633;51.494;5.386;2023-04-25T10:11:29;2.88;;;1.05;;
61709;SDS011;47633;51.494;5.386;2023-04-25T10:13:56;4.10;;;1.10;;
61709;SDS011;47633;51.494;5.386;2023-04-25T10:16:22;5.95;;;1.10;;
61709;SDS011;47633;51.494;5.386;2023-04-25T10:18:49;5.22;;;1.15;;
61709;SDS011;47633;51.494;5.386;2023-04-25T10:21:15;4.72;;;0.93;;
61709;SDS011;47633;51.494;5.386;2023-04-25T10:23:41;3.63;;;1.02;;
61709;SDS011;47633;51.494;5.386;2023-04-25T10:26:07;4.05;;;1.00;;
61709;SDS011;47633;51.494;5.386;2023-04-25T10:28:54;3.72;;;0.90;;
61709;SDS011;47633;51.494;5.386;2023-04-25T10:31:21;2.70;;;0.80;;
61709;SDS011;47633;51.494;5.386;2023-04-25T10:33:46;4.22;;;1.05;;
61709;SDS011;47633;51.494;5.386;2023-04-25T10:36:20;5.18;;;1.00;;
61709;SDS011;47633;51.494;5.386;2023-04-25T10:38:47;3.72;;;0.93;;
61709;SDS011;47633;51.494;5.386;2023-04-25T10:41:15;5.53;;;1.00;;
61709;SDS011;47633;51.494;5.386;2023-04-25T10:43:44;3.60;;;0.95;;
61709;SDS011;47633;51.494;5.386;2023-04-25T10:46:23;2.80;;;0.90;;
61709;SDS011;47633;51.494;5.386;2023-04-25T10:48:56;5.38;;;1.02;;
61709;SDS011;47633;51.494;5.386;2023-04-25T10:51:28;5.95;;;1.17;;
61709;SDS011;47633;51.494;5.386;2023-04-25T10:54:01;5.50;;;0.90;;
61709;SDS011;47633;51.494;5.386;2023-04-25T10:56:29;3.22;;;1.00;;
61709;SDS011;47633;51.494;5.386;2023-04-25T11:01:38;5.90;;;1.10;;
61709;SDS011;47633;51.494;5.386;2023-04-25T11:04:28;4.80;;;1.20;;
61709;SDS011;47633;51.494;5.386;2023-04-25T11:09:25;5.13;;;1.38;;
61709;SDS011;47633;51.494;5.386;2023-04-25T11:11:55;4.55;;;1.10;;
61709;SDS011;47633;51.494;5.386;2023-04-25T11:14:21;3.47;;;1.13;;
61709;SDS011;47633;51.494;5.386;2023-04-25T11:16:46;4.38;;;1.10;;
61709;SDS011;47633;51.494;5.386;2023-04-25T11:19:12;4.57;;;1.00;;
61709;SDS011;47633;51.494;5.386;2023-04-25T11:21:37;4.55;;;0.93;;
61709;SDS011;47633;51.494;5.386;2023-04-25T11:24:03;4.13;;;0.90;;
61709;SDS011;47633;51.494;5.386;2023-04-25T11:26:29;6.43;;;1.08;;
61709;SDS011;47633;51.494;5.386;2023-04-25T11:28:58;4.88;;;1.10;;
61709;SDS011;47633;51.494;5.386;2023-04-25T11:31:29;5.05;;;1.58;;
61709;SDS011;47633;51.494;5.386;2023-04-25T11:33:56;5.70;;;1.40;;
61709;SDS011;47633;51.494;5.386;2023-04-25T11:36:22;4.68;;;1.40;;
61709;SDS011;47633;51.494;5.386;2023-04-25T11:38:50;5.32;;;1.60;;
61709;SDS011;47633;51.494;5.386;2023-04-25T11:41:16;5.38;;;1.70;;
61709;SDS011;47633;51.494;5.386;2023-04-25T11:43:43;4.22;;;1.60;;
61709;SDS011;47633;51.494;5.386;2023-04-25T11:46:09;13.15;;;2.03;;
61709;SDS011;47633;51.494;5.386;2023-04-25T11:48:41;5.00;;;1.65;;
61709;SDS011;47633;51.494;5.386;2023-04-25T11:51:07;8.93;;;1.60;;
61709;SDS011;47633;51.494;5.386;2023-04-25T11:53:33;7.28;;;1.55;;
61709;SDS011;47633;51.494;5.386;2023-04-25T11:55:58;5.60;;;1.80;;
61709;SDS011;47633;51.494;5.386;2023-04-25T11:58:25;5.40;;;1.40;;
61709;SDS011;47633;51.494;5.386;2023-04-25T12:00:51;5.55;;;1.30;;
61709;SDS011;47633;51.494;5.386;2023-04-25T12:03:17;4.65;;;1.30;;
61709;SDS011;47633;51.494;5.386;2023-04-25T12:05:44;6.35;;;1.48;;
61709;SDS011;47633;51.494;5.386;2023-04-25T12:08:10;6.57;;;1.70;;
61709;SDS011;47633;51.494;5.386;2023-04-25T12:10:37;6.30;;;1.50;;
61709;SDS011;47633;51.494;5.386;2023-04-25T12:13:24;4.20;;;1.35;;
61709;SDS011;47633;51.494;5.386;2023-04-25T12:15:50;6.20;;;1.40;;
61709;SDS011;47633;51.494;5.386;2023-04-25T12:18:19;5.82;;;1.50;;
61709;SDS011;47633;51.494;5.386;2023-04-25T12:20:46;5.63;;;1.40;;
61709;SDS011;47633;51.494;5.386;2023-04-25T12:23:11;5.72;;;1.35;;
61709;SDS011;47633;51.494;5.386;2023-04-25T12:25:38;4.22;;;1.23;;
61709;SDS011;47633;51.494;5.386;2023-04-25T12:33:20;5.25;;;1.42;;
61709;SDS011;47633;51.494;5.386;2023-04-25T12:35:46;7.60;;;1.65;;
61709;SDS011;47633;51.494;5.386;2023-04-25T12:38:19;5.07;;;1.52;;
61709;SDS011;47633;51.494;5.386;2023-04-25T12:40:46;4.32;;;1.45;;
61709;SDS011;47633;51.494;5.386;2023-04-25T12:43:11;5.07;;;1.23;;
61709;SDS011;47633;51.494;5.386;2023-04-25T12:45:36;4.33;;;1.17;;
61709;SDS011;47633;51.494;5.386;2023-04-25T12:48:01;3.65;;;1.30;;
61709;SDS011;47633;51.494;5.386;2023-04-25T12:50:27;4.00;;;1.33;;
61709;SDS011;47633;51.494;5.386;2023-04-25T12:52:52;3.77;;;1.40;;
61709;SDS011;47633;51.494;5.386;2023-04-25T12:55:17;4.88;;;1.30;;
61709;SDS011;47633;51.494;5.386;2023-04-25T12:57:43;4.33;;;1.20;;
61709;SDS011;47633;51.494;5.386;2023-04-25T13:00:08;4.63;;;1.20;;
61709;SDS011;47633;51.494;5.386;2023-04-25T13:02:39;4.72;;;1.15;;
61709;SDS011;47633;51.494;5.386;2023-04-25T13:05:05;5.40;;;1.50;;
61709;SDS011;47633;51.494;5.386;2023-04-25T13:07:30;3.45;;;1.15;;
61709;SDS011;47633;51.494;5.386;2023-04-25T13:09:56;4.95;;;1.45;;
61709;SDS011;47633;51.494;5.386;2023-04-25T13:12:21;4.43;;;1.35;;
61709;SDS011;47633;51.494;5.386;2023-04-25T13:14:46;4.82;;;1.45;;
61709;SDS011;47633;51.494;5.386;2023-04-25T13:17:12;3.83;;;1.20;;
61709;SDS011;47633;51.494;5.386;2023-04-25T13:19:37;4.00;;;1.17;;
61709;SDS011;47633;51.494;5.386;2023-04-25T13:22:03;4.35;;;1.27;;
61709;SDS011;47633;51.494;5.386;2023-04-25T13:24:29;3.88;;;1.17;;
61709;SDS011;47633;51.494;5.386;2023-04-25T13:26:54;4.40;;;1.35;;
61709;SDS011;47633;51.494;5.386;2023-04-25T13:29:20;3.55;;;1.05;;
61709;SDS011;47633;51.494;5.386;2023-04-25T13:31:45;3.15;;;1.08;;
61709;SDS011;47633;51.494;5.386;2023-04-25T13:34:10;4.78;;;1.20;;
61709;SDS011;47633;51.494;5.386;2023-04-25T13:36:37;4.28;;;1.45;;
61709;SDS011;47633;51.494;5.386;2023-04-25T13:39:03;5.07;;;1.48;;
61709;SDS011;47633;51.494;5.386;2023-04-25T13:41:29;4.35;;;1.33;;
61709;SDS011;47633;51.494;5.386;2023-04-25T13:43:55;3.45;;;1.15;;
61709;SDS011;47633;51.494;5.386;2023-04-25T13:46:20;2.72;;;1.10;;
61709;SDS011;47633;51.494;5.386;2023-04-25T13:48:46;4.47;;;1.23;;
61709;SDS011;47633;51.494;5.386;2023-04-25T13:51:13;4.13;;;1.27;;
61709;SDS011;47633;51.494;5.386;2023-04-25T13:53:42;3.08;;;1.10;;
61709;SDS011;47633;51.494;5.386;2023-04-25T13:56:07;5.00;;;1.52;;
61709;SDS011;47633;51.494;5.386;2023-04-25T13:58:33;4.22;;;1.40;;
61709;SDS011;47633;51.494;5.386;2023-04-25T14:00:58;6.47;;;1.77;;
61709;SDS011;47633;51.494;5.386;2023-04-25T14:03:23;3.88;;;1.15;;
61709;SDS011;47633;51.494;5.386;2023-04-25T14:05:49;3.90;;;1.20;;
61709;SDS011;47633;51.494;5.386;2023-04-25T14:08:15;3.97;;;1.33;;
61709;SDS011;47633;51.494;5.386;2023-04-25T14:10:40;3.78;;;1.10;;
61709;SDS011;47633;51.494;5.386;2023-04-25T14:13:05;4.47;;;1.40;;
61709;SDS011;47633;51.494;5.386;2023-04-25T14:15:32;2.47;;;0.85;;
61709;SDS011;47633;51.494;5.386;2023-04-25T14:17:57;3.33;;;1.20;;
61709;SDS011;47633;51.494;5.386;2023-04-25T14:20:23;4.38;;;1.10;;
61709;SDS011;47633;51.494;5.386;2023-04-25T14:22:49;4.90;;;1.10;;
61709;SDS011;47633;51.494;5.386;2023-04-25T14:25:14;8.07;;;1.30;;
61709;SDS011;47633;51.494;5.386;2023-04-25T14:27:39;3.15;;;1.00;;
61709;SDS011;47633;51.494;5.386;2023-04-25T14:30:05;4.45;;;1.20;;
61709;SDS011;47633;51.494;5.386;2023-04-25T14:32:31;4.15;;;1.08;;
61709;SDS011;47633;51.494;5.386;2023-04-25T14:34:57;2.92;;;1.10;;
61709;SDS011;47633;51.494;5.386;2023-04-25T14:37:22;3.38;;;1.20;;
61709;SDS011;47633;51.494;5.386;2023-04-25T14:39:48;3.63;;;1.02;;
61709;SDS011;47633;51.494;5.386;2023-04-25T14:42:13;4.07;;;1.33;;
61709;SDS011;47633;51.494;5.386;2023-04-25T14:44:38;3.88;;;1.17;;
61709;SDS011;47633;51.494;5.386;2023-04-25T14:47:03;4.80;;;1.20;;
61709;SDS011;47633;51.494;5.386;2023-04-25T14:49:29;4.10;;;1.40;;
61709;SDS011;47633;51.494;5.386;2023-04-25T14:51:54;3.42;;;1.10;;
61709;SDS011;47633;51.494;5.386;2023-04-25T14:54:20;4.50;;;1.40;;